createdAt,value
2023-01-21T00:01:06.894Z,27.20
2023-01-21T00:03:34.696Z,32.10
2023-01-21T00:06:02.054Z,28.93
2023-01-21T00:08:31.013Z,30.87
2023-01-21T00:11:01.036Z,32.67
2023-01-21T00:13:28.379Z,31.80
2023-01-21T00:15:56.260Z,33.93
2023-01-21T00:18:23.801Z,32.40
2023-01-21T00:20:51.686Z,31.40
2023-01-21T00:23:19.261Z,28.37
2023-01-21T00:25:46.966Z,30.13
2023-01-21T00:28:14.304Z,31.40
2023-01-21T00:30:42.960Z,27.80
2023-01-21T00:33:10.890Z,35.10
2023-01-21T00:35:38.514Z,30.57
2023-01-21T00:38:06.032Z,29.87
2023-01-21T00:40:33.545Z,32.20
2023-01-21T00:43:01.293Z,34.13
2023-01-21T00:45:28.537Z,35.20
2023-01-21T00:47:56.116Z,33.97
2023-01-21T00:50:24.019Z,31.50
2023-01-21T00:52:51.462Z,33.20
2023-01-21T00:55:19.308Z,30.90
2023-01-21T00:57:47.354Z,32.83
2023-01-21T01:00:16.328Z,34.60
2023-01-21T01:02:44.280Z,32.63
2023-01-21T01:05:12.757Z,37.30
2023-01-21T01:07:43.678Z,32.80
2023-01-21T01:10:14.591Z,29.70
2023-01-21T01:12:42.607Z,28.67
2023-01-21T01:15:10.479Z,35.23
2023-01-21T01:17:38.458Z,30.63
2023-01-21T01:20:06.200Z,30.93
2023-01-21T01:22:33.766Z,27.67
2023-01-21T01:25:02.104Z,31.23
2023-01-21T01:27:30.636Z,28.80
2023-01-21T01:29:58.226Z,30.63
2023-01-21T01:32:25.849Z,25.53
2023-01-21T01:34:53.490Z,27.77
2023-01-21T01:37:20.767Z,22.73
2023-01-21T01:39:48.668Z,27.03
2023-01-21T01:42:17.467Z,25.33
2023-01-21T01:44:54.319Z,28.73
2023-01-21T01:47:24.791Z,26.10
2023-01-21T01:49:55.019Z,24.47
2023-01-21T01:52:22.714Z,26.80
2023-01-21T01:54:52.241Z,28.27
2023-01-21T01:57:24.487Z,28.07
2023-01-21T01:59:52.233Z,30.53
2023-01-21T02:02:20.587Z,27.93
2023-01-21T02:04:50.761Z,25.30
2023-01-21T02:07:19.662Z,26.77
2023-01-21T02:09:48.523Z,25.93
2023-01-21T02:12:18.053Z,25.93
2023-01-21T02:14:46.643Z,26.57
2023-01-21T02:17:20.223Z,27.83
2023-01-21T02:19:48.255Z,30.30
2023-01-21T02:22:23.128Z,28.07
2023-01-21T02:25:07.747Z,30.70
2023-01-21T02:27:54.093Z,27.33
2023-01-21T02:30:32.007Z,30.60
2023-01-21T02:33:00.479Z,28.30
2023-01-21T02:35:36.089Z,29.93
2023-01-21T02:38:07.845Z,27.10
2023-01-21T02:40:42.032Z,26.77
2023-01-21T02:43:16.299Z,30.17
2023-01-21T02:45:47.303Z,24.57
2023-01-21T02:48:17.523Z,25.67
2023-01-21T02:50:56.990Z,25.47
2023-01-21T02:53:31.658Z,32.90
2023-01-21T02:56:19.908Z,31.53
2023-01-21T02:59:01.623Z,27.90
2023-01-21T03:01:51.838Z,25.60
2023-01-21T03:04:28.881Z,32.37
2023-01-21T03:07:14.867Z,29.73
2023-01-21T03:09:42.093Z,34.37
2023-01-21T03:12:38.719Z,31.03
2023-01-21T03:15:28.519Z,30.47
2023-01-21T03:18:07.700Z,31.90
2023-01-21T03:20:38.385Z,27.90
2023-01-21T03:23:10.821Z,27.73
2023-01-21T03:25:38.618Z,28.63
2023-01-21T03:28:09.136Z,28.50
2023-01-21T03:30:37.719Z,25.37
2023-01-21T03:33:06.051Z,30.47
2023-01-21T03:35:37.763Z,24.93
2023-01-21T03:38:11.453Z,28.87
2023-01-21T03:40:45.639Z,31.90
2023-01-21T03:43:13.001Z,35.23
2023-01-21T03:46:04.100Z,25.37
2023-01-21T03:48:40.276Z,29.00
2023-01-21T03:51:10.256Z,26.90
2023-01-21T03:53:37.774Z,28.93
2023-01-21T03:56:05.305Z,26.23
2023-01-21T03:58:32.614Z,25.53
2023-01-21T04:00:59.965Z,24.03
2023-01-21T04:03:27.669Z,27.90
2023-01-21T04:05:55.008Z,27.63
2023-01-21T04:08:24.741Z,26.63
2023-01-21T04:10:51.889Z,27.10
2023-01-21T04:13:19.453Z,28.80
2023-01-21T04:15:46.786Z,24.77
2023-01-21T04:18:14.279Z,26.97
2023-01-21T04:20:42.231Z,26.33
2023-01-21T04:23:09.974Z,25.50
2023-01-21T04:25:37.973Z,27.90
2023-01-21T04:28:06.212Z,29.23
2023-01-21T04:30:33.598Z,25.60
2023-01-21T04:33:00.971Z,27.23
2023-01-21T04:35:28.333Z,30.93
2023-01-21T04:37:55.615Z,28.60
2023-01-21T04:40:23.450Z,26.83
2023-01-21T04:42:51.219Z,27.50
2023-01-21T04:45:18.639Z,26.73
2023-01-21T04:47:46.911Z,29.37
2023-01-21T04:50:15.069Z,27.87
2023-01-21T04:52:43.019Z,29.50
2023-01-21T04:55:11.570Z,28.73
2023-01-21T04:57:39.229Z,30.13
2023-01-21T05:00:08.074Z,28.90
2023-01-21T05:02:35.855Z,32.40
2023-01-21T05:05:03.310Z,29.47
2023-01-21T05:07:30.500Z,28.80
2023-01-21T05:09:58.002Z,28.50
2023-01-21T05:12:25.266Z,26.53
2023-01-21T05:14:57.855Z,27.33
2023-01-21T05:17:25.496Z,28.53
2023-01-21T05:19:52.886Z,30.67
2023-01-21T05:22:20.390Z,32.73
2023-01-21T05:24:48.136Z,32.03
2023-01-21T05:27:16.325Z,30.70
2023-01-21T05:29:43.907Z,30.70
2023-01-21T05:32:11.116Z,28.53
2023-01-21T05:34:38.465Z,30.47
2023-01-21T05:37:05.640Z,27.80
2023-01-21T05:39:33.011Z,33.33
2023-01-21T05:42:00.733Z,33.00
2023-01-21T05:44:28.078Z,34.93
2023-01-21T05:46:56.509Z,30.23
2023-01-21T05:49:24.077Z,31.70
2023-01-21T05:51:51.913Z,32.23
2023-01-21T05:54:19.336Z,33.87
2023-01-21T05:56:47.020Z,29.33
2023-01-21T05:59:14.545Z,35.27
2023-01-21T06:01:41.805Z,25.83
2023-01-21T06:04:09.603Z,39.93
2023-01-21T06:06:37.417Z,33.63
2023-01-21T06:09:05.363Z,31.63
2023-01-21T06:11:32.946Z,29.60
2023-01-21T06:14:00.584Z,31.73
2023-01-21T06:16:28.349Z,30.67
2023-01-21T06:18:55.674Z,36.30
2023-01-21T06:21:23.017Z,27.37
2023-01-21T06:23:50.809Z,29.27
2023-01-21T06:26:19.134Z,28.80
2023-01-21T06:28:46.616Z,31.90
2023-01-21T06:31:13.898Z,30.80
2023-01-21T06:33:41.650Z,28.23
2023-01-21T06:36:10.182Z,30.43
2023-01-21T06:38:37.600Z,31.20
2023-01-21T06:41:05.436Z,40.47
2023-01-21T06:43:32.763Z,32.43
2023-01-21T06:45:59.941Z,34.63
2023-01-21T06:48:27.370Z,30.67
2023-01-21T06:50:54.543Z,29.77
2023-01-21T06:53:21.751Z,27.50
2023-01-21T06:55:49.943Z,34.43
2023-01-21T06:58:17.105Z,33.60
2023-01-21T07:00:44.413Z,30.67
2023-01-21T07:03:11.669Z,30.20
2023-01-21T07:05:38.860Z,33.20
2023-01-21T07:08:06.063Z,31.43
2023-01-21T07:10:33.224Z,33.53
2023-01-21T07:13:00.374Z,34.07
2023-01-21T07:15:30.776Z,33.60
2023-01-21T07:17:58.305Z,28.57
2023-01-21T07:20:25.897Z,34.40
2023-01-21T07:22:53.070Z,28.13
2023-01-21T07:25:20.420Z,32.43
2023-01-21T07:27:47.568Z,31.17
2023-01-21T07:30:19.254Z,33.60
2023-01-21T07:32:46.903Z,30.30
2023-01-21T07:35:14.519Z,31.77
2023-01-21T07:37:41.790Z,30.30
2023-01-21T07:40:10.324Z,31.40
2023-01-21T07:42:37.919Z,29.53
2023-01-21T07:45:05.395Z,32.87
2023-01-21T07:47:32.578Z,35.10
2023-01-21T07:50:04.741Z,36.10
2023-01-21T07:52:32.555Z,35.47
2023-01-21T07:54:59.814Z,33.17
2023-01-21T07:57:27.013Z,31.87
2023-01-21T07:59:54.174Z,32.43
2023-01-21T08:02:21.412Z,27.73
2023-01-21T08:04:48.669Z,32.20
2023-01-21T08:07:15.911Z,29.53
2023-01-21T08:09:43.041Z,30.37
2023-01-21T08:12:10.575Z,27.47
2023-01-21T08:14:38.649Z,30.83
2023-01-21T08:17:05.970Z,28.80
2023-01-21T08:19:33.154Z,30.13
2023-01-21T08:22:00.408Z,28.00
2023-01-21T08:24:27.567Z,33.37
2023-01-21T08:26:57.776Z,29.27
2023-01-21T08:29:25.082Z,29.53
2023-01-21T08:31:52.560Z,31.73
2023-01-21T08:34:20.006Z,26.83
2023-01-21T08:36:47.217Z,26.27
2023-01-21T08:39:16.402Z,24.67
2023-01-21T08:41:44.197Z,30.80
2023-01-21T08:44:11.353Z,33.07
2023-01-21T08:46:38.498Z,27.13
2023-01-21T08:49:06.474Z,26.63
2023-01-21T08:51:34.316Z,30.47
2023-01-21T08:54:01.775Z,24.37
2023-01-21T08:56:28.986Z,30.10
2023-01-21T08:58:56.906Z,32.40
2023-01-21T09:01:25.567Z,29.10
2023-01-21T09:03:56.852Z,27.47
2023-01-21T09:06:25.506Z,26.13
2023-01-21T09:08:52.679Z,20.20
2023-01-21T09:11:19.873Z,24.40
2023-01-21T09:13:47.408Z,25.40
2023-01-21T09:16:14.575Z,24.13
2023-01-21T09:18:42.814Z,22.97
2023-01-21T09:21:10.785Z,24.10
2023-01-21T09:23:38.869Z,28.37
2023-01-21T09:26:10.747Z,24.40
2023-01-21T09:28:38.746Z,26.80
2023-01-21T09:31:06.977Z,26.40
2023-01-21T09:33:35.036Z,24.60
2023-01-21T09:36:03.349Z,25.23
2023-01-21T09:38:31.056Z,23.47
2023-01-21T09:41:03.121Z,18.97
2023-01-21T09:43:40.966Z,21.20
2023-01-21T09:46:13.012Z,20.60
2023-01-21T09:48:43.335Z,20.43
2023-01-21T09:51:19.310Z,24.90
2023-01-21T09:53:50.885Z,23.10
2023-01-21T09:56:23.730Z,22.30
2023-01-21T09:58:55.860Z,22.33
2023-01-21T10:01:34.397Z,18.70
2023-01-21T10:04:19.987Z,21.70
2023-01-21T10:07:06.169Z,22.90
2023-01-21T10:09:39.386Z,25.43
2023-01-21T10:12:14.249Z,21.07
2023-01-21T10:14:57.682Z,23.60
2023-01-21T10:17:30.700Z,23.50
2023-01-21T10:20:02.676Z,26.47
2023-01-21T10:22:31.401Z,23.10
2023-01-21T10:25:14.012Z,27.57
2023-01-21T10:27:41.737Z,24.37
2023-01-21T10:30:23.065Z,21.70
2023-01-21T10:32:51.480Z,26.30
2023-01-21T10:35:19.439Z,18.07
2023-01-21T10:37:51.020Z,20.20
2023-01-21T10:40:44.340Z,25.13
2023-01-21T10:43:18.243Z,23.67
2023-01-21T10:46:05.885Z,27.43
2023-01-21T10:48:37.860Z,25.07
2023-01-21T10:51:10.445Z,26.03
2023-01-21T10:53:44.910Z,27.53
2023-01-21T10:56:20.762Z,25.13
2023-01-21T10:59:00.901Z,30.33
2023-01-21T11:01:33.035Z,22.13
2023-01-21T11:04:04.175Z,30.13
2023-01-21T11:06:32.672Z,27.60
2023-01-21T11:09:02.892Z,27.47
2023-01-21T11:11:31.600Z,30.00
2023-01-21T11:13:59.543Z,29.67
2023-01-21T11:16:32.728Z,30.33
2023-01-21T11:18:59.971Z,30.90
2023-01-21T11:21:28.120Z,23.50
2023-01-21T11:24:18.803Z,24.20
2023-01-21T11:26:53.252Z,29.93
2023-01-21T11:29:22.267Z,24.07
2023-01-21T11:32:02.277Z,27.77
2023-01-21T11:34:29.911Z,24.40
2023-01-21T11:37:01.740Z,24.97
2023-01-21T11:39:30.555Z,20.70
2023-01-21T11:42:08.212Z,26.83
2023-01-21T11:44:35.379Z,22.80
2023-01-21T11:47:02.572Z,20.30
2023-01-21T11:49:30.725Z,25.60
2023-01-21T11:52:27.112Z,17.80
2023-01-21T11:54:54.348Z,19.97
2023-01-21T11:57:24.600Z,18.80
2023-01-21T11:59:53.182Z,20.60
2023-01-21T12:02:22.816Z,17.40
2023-01-21T12:04:53.758Z,16.77
2023-01-21T12:07:23.344Z,18.63
2023-01-21T12:10:03.092Z,18.00
2023-01-21T12:12:45.377Z,14.50
2023-01-21T12:15:22.867Z,20.13
2023-01-21T12:18:13.403Z,17.00
2023-01-21T12:20:50.591Z,16.13
2023-01-21T12:23:30.027Z,16.83
2023-01-21T12:26:14.726Z,16.43
2023-01-21T12:28:56.429Z,15.97
2023-01-21T12:31:31.351Z,15.77
2023-01-21T12:34:10.994Z,20.93
2023-01-21T12:36:43.642Z,18.40
2023-01-21T12:39:20.883Z,15.83
2023-01-21T12:41:54.994Z,18.57
2023-01-21T12:44:33.301Z,16.73
2023-01-21T12:47:02.807Z,22.13
2023-01-21T12:49:44.743Z,18.50
2023-01-21T12:52:16.403Z,16.57
2023-01-21T12:55:14.561Z,14.63
2023-01-21T12:57:44.788Z,14.10
2023-01-21T13:00:22.791Z,14.53
2023-01-21T13:02:56.500Z,17.00
2023-01-21T13:05:31.252Z,14.20
2023-01-21T13:08:09.107Z,15.57
2023-01-21T13:10:48.027Z,13.40
2023-01-21T13:13:39.754Z,15.70
2023-01-21T13:16:08.600Z,16.87
2023-01-21T13:18:37.219Z,16.37
2023-01-21T13:21:23.325Z,16.17
2023-01-21T13:23:53.861Z,15.43
2023-01-21T13:26:38.165Z,13.17
2023-01-21T13:29:17.072Z,12.43
2023-01-21T13:31:48.244Z,16.23
2023-01-21T13:34:26.194Z,12.53
2023-01-21T13:37:12.415Z,16.90
2023-01-21T13:39:42.609Z,13.13
2023-01-21T13:42:27.875Z,12.43
2023-01-21T13:44:58.101Z,11.90
2023-01-21T13:47:38.708Z,13.13
2023-01-21T13:50:17.444Z,13.60
2023-01-21T13:52:51.720Z,13.47
2023-01-21T13:55:26.775Z,9.67
2023-01-21T13:58:02.776Z,13.53
2023-01-21T14:00:36.461Z,12.90
2023-01-21T14:03:06.890Z,11.63
2023-01-21T14:05:43.358Z,11.00
2023-01-21T14:08:10.887Z,11.80
2023-01-21T14:10:47.516Z,13.80
2023-01-21T14:13:14.636Z,12.93
2023-01-21T14:15:53.012Z,13.67
2023-01-21T14:18:31.501Z,12.17
2023-01-21T14:21:10.034Z,13.13
2023-01-21T14:23:44.369Z,16.77
2023-01-21T14:26:17.091Z,11.00
2023-01-21T14:29:06.502Z,13.37
2023-01-21T14:31:36.519Z,11.10
2023-01-21T14:34:12.079Z,11.73
2023-01-21T14:36:44.370Z,15.40
2023-01-21T14:39:34.092Z,14.63
2023-01-21T14:42:10.518Z,12.73
2023-01-21T14:44:39.418Z,12.57
2023-01-21T14:47:22.907Z,11.87
2023-01-21T14:49:52.157Z,13.87
2023-01-21T14:52:27.642Z,16.30
2023-01-21T14:54:54.785Z,15.40
2023-01-21T14:57:21.906Z,14.60
2023-01-21T14:59:49.931Z,10.80
2023-01-21T15:02:20.285Z,13.87
2023-01-21T15:04:55.986Z,14.43
2023-01-21T15:07:24.105Z,12.20
2023-01-21T15:09:53.593Z,13.57
2023-01-21T15:12:23.678Z,11.30
2023-01-21T15:14:51.095Z,16.33
2023-01-21T15:17:37.243Z,11.50
2023-01-21T15:20:24.647Z,10.40
2023-01-21T15:23:04.154Z,12.10
2023-01-21T15:25:34.064Z,9.87
2023-01-21T15:28:20.302Z,11.90
2023-01-21T15:30:59.965Z,9.97
2023-01-21T15:33:27.920Z,10.20
2023-01-21T15:35:55.626Z,10.80
2023-01-21T15:38:24.700Z,12.50
2023-01-21T15:40:56.368Z,14.53
2023-01-21T15:43:35.980Z,12.60
2023-01-21T15:46:11.631Z,9.83
2023-01-21T15:48:48.083Z,11.83
2023-01-21T15:51:30.935Z,12.00
2023-01-21T15:54:07.742Z,14.17
2023-01-21T15:56:46.795Z,9.63
2023-01-21T15:59:38.419Z,11.20
2023-01-21T16:02:14.961Z,10.83
2023-01-21T16:04:46.820Z,11.37
2023-01-21T16:07:33.166Z,15.10
2023-01-21T16:10:06.112Z,11.50
2023-01-21T16:12:36.550Z,12.77
2023-01-21T16:15:04.812Z,15.57
2023-01-21T16:17:41.513Z,14.47
2023-01-21T16:20:11.404Z,13.23
2023-01-21T16:22:40.358Z,13.30
2023-01-21T16:25:10.438Z,12.03
2023-01-21T16:27:37.721Z,11.73
2023-01-21T16:30:12.450Z,13.33
2023-01-21T16:32:39.698Z,11.77
2023-01-21T16:35:07.149Z,13.43
2023-01-21T16:37:34.625Z,13.80
2023-01-21T16:40:20.042Z,10.07
2023-01-21T16:42:47.191Z,12.80
2023-01-21T16:45:14.571Z,11.30
2023-01-21T16:47:41.940Z,11.10
2023-01-21T16:50:19.306Z,10.07
2023-01-21T16:52:46.845Z,11.17
2023-01-21T16:55:22.367Z,13.50
2023-01-21T16:57:50.812Z,15.13
2023-01-21T17:00:25.751Z,16.83
2023-01-21T17:02:54.836Z,14.07
2023-01-21T17:05:22.436Z,14.00
2023-01-21T17:07:55.830Z,13.93
2023-01-21T17:10:27.458Z,13.97
2023-01-21T17:12:57.378Z,13.30
2023-01-21T17:15:25.402Z,17.37
2023-01-21T17:17:55.166Z,14.13
2023-01-21T17:20:36.673Z,15.90
2023-01-21T17:23:05.810Z,14.77
2023-01-21T17:25:34.028Z,12.97
2023-01-21T17:28:16.537Z,13.53
2023-01-21T17:30:44.234Z,21.20
2023-01-21T17:33:26.999Z,14.93
2023-01-21T17:36:08.489Z,13.80
2023-01-21T17:38:39.692Z,11.93
2023-01-21T17:41:08.789Z,12.47
2023-01-21T17:43:38.079Z,15.27
2023-01-21T17:46:05.592Z,15.17
2023-01-21T17:48:38.582Z,16.87
2023-01-21T17:51:16.690Z,15.50
2023-01-21T17:53:52.858Z,18.73
2023-01-21T17:56:36.622Z,12.20
2023-01-21T17:59:06.077Z,17.57
2023-01-21T18:01:33.610Z,16.00
2023-01-21T18:04:01.071Z,14.83
2023-01-21T18:06:29.281Z,22.70
2023-01-21T18:08:59.608Z,14.37
2023-01-21T18:11:28.718Z,18.97
2023-01-21T18:13:55.920Z,14.43
2023-01-21T18:16:23.418Z,9.23
2023-01-21T18:18:53.897Z,14.00
2023-01-21T18:21:21.777Z,14.13
2023-01-21T18:23:49.153Z,13.53
2023-01-21T18:26:18.284Z,17.47
2023-01-21T18:28:48.012Z,14.67
2023-01-21T18:31:15.304Z,15.70
2023-01-21T18:33:42.702Z,16.27
2023-01-21T18:36:11.770Z,11.60
2023-01-21T18:38:38.961Z,12.40
2023-01-21T18:41:08.674Z,10.77
2023-01-21T18:43:36.057Z,15.60
2023-01-21T18:46:03.237Z,18.93
2023-01-21T18:48:31.987Z,10.70
2023-01-21T18:50:59.365Z,14.57
2023-01-21T18:53:26.793Z,12.97
2023-01-21T18:55:54.295Z,11.73
2023-01-21T18:58:21.822Z,15.50
2023-01-21T19:00:49.186Z,10.70
2023-01-21T19:03:17.009Z,10.40
2023-01-21T19:05:47.561Z,12.53
2023-01-21T19:08:19.462Z,11.60
2023-01-21T19:10:46.577Z,16.10
2023-01-21T19:13:13.732Z,12.60
2023-01-21T19:15:41.944Z,14.20
2023-01-21T19:18:13.918Z,14.43
2023-01-21T19:20:41.686Z,14.33
2023-01-21T19:23:16.333Z,14.73
2023-01-21T19:25:55.390Z,14.67
2023-01-21T19:28:23.534Z,13.00
2023-01-21T19:30:55.951Z,10.20
2023-01-21T19:33:25.522Z,12.40
2023-01-21T19:35:58.223Z,12.53
2023-01-21T19:38:26.273Z,15.30
2023-01-21T19:40:54.938Z,11.23
2023-01-21T19:43:22.935Z,11.80
2023-01-21T19:45:52.342Z,12.93
2023-01-21T19:48:20.549Z,13.13
2023-01-21T19:50:49.116Z,10.00
2023-01-21T19:53:17.843Z,15.90
2023-01-21T19:55:46.535Z,14.97
2023-01-21T19:58:21.913Z,8.57
2023-01-21T20:00:51.022Z,12.20
2023-01-21T20:03:19.489Z,9.87
2023-01-21T20:05:48.594Z,12.93
2023-01-21T20:08:19.687Z,11.63
2023-01-21T20:10:46.867Z,17.10
2023-01-21T20:13:15.021Z,11.57
2023-01-21T20:15:43.278Z,15.17
2023-01-21T20:18:19.361Z,14.33
2023-01-21T20:20:46.655Z,9.70
2023-01-21T20:23:15.518Z,9.43
2023-01-21T20:25:43.793Z,9.33
2023-01-21T20:28:20.097Z,13.17
2023-01-21T20:30:48.411Z,11.63
2023-01-21T20:33:17.280Z,11.17
2023-01-21T20:35:55.160Z,10.53
2023-01-21T20:38:24.889Z,14.50
2023-01-21T20:40:52.062Z,12.80
2023-01-21T20:43:20.537Z,11.67
2023-01-21T20:45:49.789Z,13.57
2023-01-21T20:48:25.079Z,11.50
2023-01-21T20:50:54.254Z,13.93
2023-01-21T20:53:21.589Z,15.50
2023-01-21T20:55:50.134Z,12.70
2023-01-21T20:58:18.173Z,9.37
2023-01-21T21:00:46.584Z,12.83
2023-01-21T21:03:18.137Z,11.50
2023-01-21T21:05:46.429Z,12.37
2023-01-21T21:08:21.563Z,11.27
2023-01-21T21:10:50.731Z,12.40
2023-01-21T21:13:18.078Z,9.53
2023-01-21T21:15:46.727Z,12.53
2023-01-21T21:18:15.283Z,17.03
2023-01-21T21:20:43.031Z,17.90
2023-01-21T21:23:14.418Z,18.70
2023-01-21T21:25:42.815Z,13.47
2023-01-21T21:28:17.243Z,18.20
2023-01-21T21:30:44.841Z,17.70
2023-01-21T21:33:18.437Z,17.30
2023-01-21T21:35:46.620Z,14.97
2023-01-21T21:38:21.682Z,14.40
2023-01-21T21:40:52.844Z,18.50
2023-01-21T21:43:35.233Z,17.43
2023-01-21T21:46:25.502Z,18.37
2023-01-21T21:48:53.000Z,17.43
2023-01-21T21:51:22.354Z,17.60
2023-01-21T21:53:51.414Z,18.20
2023-01-21T21:56:23.068Z,31.00
2023-01-21T21:58:51.253Z,24.17
2023-01-21T22:01:25.371Z,17.47
2023-01-21T22:03:53.106Z,20.80
2023-01-21T22:06:21.377Z,19.03
2023-01-21T22:08:49.161Z,18.00
2023-01-21T22:11:17.516Z,18.23
2023-01-21T22:13:45.192Z,18.13
2023-01-21T22:16:14.418Z,18.20
2023-01-21T22:18:41.688Z,18.37
2023-01-21T22:21:11.077Z,13.93
2023-01-21T22:23:38.438Z,18.40
2023-01-21T22:26:07.289Z,20.93
2023-01-21T22:28:37.538Z,17.43
2023-01-21T22:31:09.504Z,20.23
2023-01-21T22:33:38.101Z,17.80
2023-01-21T22:36:09.853Z,18.50
2023-01-21T22:38:40.292Z,17.47
2023-01-21T22:41:08.006Z,15.70
2023-01-21T22:43:35.480Z,20.40
2023-01-21T22:46:02.702Z,15.03
2023-01-21T22:48:31.214Z,15.57
2023-01-21T22:50:59.896Z,19.70
2023-01-21T22:53:27.878Z,19.70
2023-01-21T22:55:55.249Z,18.73
2023-01-21T22:58:22.691Z,15.77
2023-01-21T23:00:50.505Z,15.23
2023-01-21T23:03:18.295Z,16.90
2023-01-21T23:05:45.713Z,15.57
2023-01-21T23:08:15.253Z,19.33
2023-01-21T23:10:43.251Z,13.63
2023-01-21T23:13:11.733Z,13.40
2023-01-21T23:15:46.735Z,16.83
2023-01-21T23:18:15.315Z,15.23
2023-01-21T23:20:43.613Z,13.47
2023-01-21T23:23:12.017Z,14.23
2023-01-21T23:25:46.688Z,18.40
2023-01-21T23:28:14.913Z,20.63
2023-01-21T23:30:42.652Z,14.77
2023-01-21T23:33:12.096Z,19.60
2023-01-21T23:35:40.083Z,15.13
2023-01-21T23:38:07.778Z,17.27
2023-01-21T23:40:34.986Z,14.83
2023-01-21T23:43:02.869Z,14.27
2023-01-21T23:45:30.466Z,14.20
2023-01-21T23:47:58.167Z,17.60
2023-01-21T23:50:26.013Z,13.50
2023-01-21T23:52:54.230Z,15.17
2023-01-21T23:55:21.469Z,16.10
2023-01-21T23:57:48.855Z,18.10
